createdAt,value
2022-08-30T00:01:06.370Z,3.13
2022-08-30T00:03:41.058Z,2.73
2022-08-30T00:06:09.806Z,3.20
2022-08-30T00:08:37.863Z,3.50
2022-08-30T00:11:06.277Z,3.60
2022-08-30T00:13:32.982Z,2.77
2022-08-30T00:15:59.963Z,2.90
2022-08-30T00:18:26.632Z,2.63
2022-08-30T00:20:53.318Z,2.80
2022-08-30T00:23:20.492Z,3.03
2022-08-30T00:25:47.548Z,3.40
2022-08-30T00:28:14.813Z,3.00
2022-08-30T00:30:42.700Z,3.13
2022-08-30T00:33:10.603Z,2.87
2022-08-30T00:35:38.671Z,3.33
2022-08-30T00:38:06.086Z,2.80
2022-08-30T00:40:34.039Z,3.00
2022-08-30T00:43:05.746Z,2.87
2022-08-30T00:45:42.799Z,2.97
2022-08-30T00:48:09.453Z,3.30
2022-08-30T00:50:52.046Z,2.80
2022-08-30T00:53:22.986Z,3.27
2022-08-30T00:55:50.509Z,3.10
2022-08-30T00:58:21.727Z,2.53
2022-08-30T01:00:54.646Z,2.70
2022-08-30T01:03:22.183Z,3.20
2022-08-30T01:05:51.464Z,3.07
2022-08-30T01:08:22.335Z,3.00
2022-08-30T01:10:51.241Z,2.83
2022-08-30T01:13:18.123Z,3.53
2022-08-30T01:15:46.205Z,3.13
2022-08-30T01:18:17.154Z,3.30
2022-08-30T01:20:57.091Z,3.37
2022-08-30T01:23:25.727Z,3.27
2022-08-30T01:25:55.042Z,3.07
2022-08-30T01:28:24.914Z,3.33
2022-08-30T01:30:52.067Z,2.73
2022-08-30T01:33:22.401Z,2.77
2022-08-30T01:36:01.392Z,2.90
2022-08-30T01:38:35.961Z,2.87
2022-08-30T01:41:29.060Z,3.47
2022-08-30T01:43:58.356Z,3.30
2022-08-30T01:46:28.229Z,3.10
2022-08-30T01:48:56.638Z,3.03
2022-08-30T01:51:25.965Z,2.87
2022-08-30T01:53:52.910Z,3.20
2022-08-30T01:56:20.152Z,3.00
2022-08-30T01:58:47.190Z,2.93
2022-08-30T02:01:16.833Z,3.30
2022-08-30T02:03:44.726Z,3.20
2022-08-30T02:06:14.065Z,3.00
2022-08-30T02:08:42.172Z,3.67
2022-08-30T02:11:09.966Z,3.10
2022-08-30T02:13:37.954Z,3.60
2022-08-30T02:16:06.375Z,3.47
2022-08-30T02:18:34.500Z,3.03
2022-08-30T02:21:01.191Z,3.50
2022-08-30T02:23:27.905Z,3.70
2022-08-30T02:25:54.953Z,3.03
2022-08-30T02:28:21.643Z,3.80
2022-08-30T02:30:52.119Z,3.10
2022-08-30T02:33:19.418Z,3.27
2022-08-30T02:35:46.209Z,3.63
2022-08-30T02:38:13.598Z,3.23
2022-08-30T02:40:40.419Z,3.23
2022-08-30T02:43:07.241Z,3.83
2022-08-30T02:45:34.062Z,4.00
2022-08-30T02:48:00.929Z,3.17
2022-08-30T02:50:27.797Z,3.37
2022-08-30T02:52:54.451Z,4.37
2022-08-30T02:55:22.588Z,3.50
2022-08-30T02:57:49.190Z,3.53
2022-08-30T03:00:18.959Z,4.13
2022-08-30T03:02:45.658Z,3.60
2022-08-30T03:05:14.280Z,4.50
2022-08-30T03:07:41.466Z,4.93
2022-08-30T03:10:09.058Z,4.47
2022-08-30T03:12:36.460Z,4.43
2022-08-30T03:15:04.254Z,4.00
2022-08-30T03:17:31.094Z,3.93
2022-08-30T03:20:00.227Z,4.13
2022-08-30T03:22:26.966Z,3.63
2022-08-30T03:24:53.585Z,4.53
2022-08-30T03:27:20.414Z,4.20
2022-08-30T03:29:47.050Z,4.53
2022-08-30T03:32:13.723Z,4.30
2022-08-30T03:34:40.637Z,4.80
2022-08-30T03:37:07.221Z,5.13
2022-08-30T03:39:34.244Z,4.27
2022-08-30T03:42:00.940Z,4.30
2022-08-30T03:44:29.377Z,4.50
2022-08-30T03:46:56.024Z,4.30
2022-08-30T03:49:24.378Z,4.63
2022-08-30T03:51:51.020Z,4.53
2022-08-30T03:54:18.262Z,4.00
2022-08-30T03:56:44.874Z,4.50
2022-08-30T03:59:11.837Z,4.53
2022-08-30T04:01:39.342Z,4.70
2022-08-30T04:04:05.930Z,4.57
2022-08-30T04:06:33.222Z,5.03
2022-08-30T04:09:00.082Z,5.07
2022-08-30T04:11:27.047Z,4.60
2022-08-30T04:13:55.762Z,4.67
2022-08-30T04:16:23.401Z,5.60
2022-08-30T04:18:50.106Z,5.13
2022-08-30T04:21:18.045Z,4.67
2022-08-30T04:23:44.874Z,4.13
2022-08-30T04:26:11.536Z,4.70
2022-08-30T04:28:38.173Z,3.80
2022-08-30T04:31:11.974Z,4.90
2022-08-30T04:33:39.454Z,5.10
2022-08-30T04:36:08.123Z,4.60
2022-08-30T04:38:36.014Z,4.30
2022-08-30T04:41:08.249Z,4.30
2022-08-30T04:43:34.846Z,5.03
2022-08-30T04:46:06.916Z,4.53
2022-08-30T04:48:34.492Z,4.57
2022-08-30T04:51:08.393Z,4.67
2022-08-30T04:53:35.617Z,4.30
2022-08-30T04:56:06.819Z,5.20
2022-08-30T04:58:34.134Z,4.30
2022-08-30T05:01:00.972Z,5.13
2022-08-30T05:03:29.144Z,4.70
2022-08-30T05:05:55.794Z,3.63
2022-08-30T05:08:24.876Z,4.47
2022-08-30T05:10:52.820Z,4.50
2022-08-30T05:13:21.253Z,4.60
2022-08-30T05:16:02.884Z,5.00
2022-08-30T05:18:29.570Z,4.70
2022-08-30T05:21:15.517Z,4.60
2022-08-30T05:23:42.645Z,4.83
2022-08-30T05:26:15.248Z,4.80
2022-08-30T05:28:42.294Z,4.63
2022-08-30T05:31:21.809Z,4.23
2022-08-30T05:33:49.747Z,4.60
2022-08-30T05:36:18.554Z,5.20
2022-08-30T05:38:45.725Z,4.40
2022-08-30T05:41:12.438Z,4.90
2022-08-30T05:43:39.618Z,4.40
2022-08-30T05:46:13.561Z,3.77
2022-08-30T05:48:40.973Z,3.63
2022-08-30T05:51:11.447Z,4.07
2022-08-30T05:53:39.505Z,4.00
2022-08-30T05:56:10.423Z,3.87
2022-08-30T05:58:38.109Z,3.53
2022-08-30T06:01:05.454Z,4.13
2022-08-30T06:03:32.918Z,4.00
2022-08-30T06:06:00.369Z,3.63
2022-08-30T06:08:27.153Z,3.83
2022-08-30T06:10:53.786Z,3.77
2022-08-30T06:13:20.453Z,3.90
2022-08-30T06:15:47.411Z,3.93
2022-08-30T06:18:14.215Z,3.67
2022-08-30T06:20:47.360Z,3.43
2022-08-30T06:23:17.851Z,3.90
2022-08-30T06:25:44.924Z,3.20
2022-08-30T06:28:12.151Z,3.87
2022-08-30T06:30:41.279Z,4.17
2022-08-30T06:33:08.338Z,3.60
2022-08-30T06:35:46.727Z,3.63
2022-08-30T06:38:22.075Z,3.33
2022-08-30T06:40:50.885Z,3.63
2022-08-30T06:43:17.597Z,3.20
2022-08-30T06:45:44.314Z,3.40
2022-08-30T06:48:10.927Z,3.03
2022-08-30T06:50:37.585Z,3.53
2022-08-30T06:53:05.924Z,3.00
2022-08-30T06:55:33.403Z,3.10
2022-08-30T06:58:04.164Z,2.80
2022-08-30T07:00:31.032Z,3.20
2022-08-30T07:02:58.086Z,2.77
2022-08-30T07:05:24.747Z,2.57
2022-08-30T07:07:54.122Z,3.07
2022-08-30T07:10:21.625Z,3.40
2022-08-30T07:12:48.904Z,3.30
2022-08-30T07:15:16.517Z,2.90
2022-08-30T07:18:02.312Z,2.73
2022-08-30T07:20:40.229Z,2.73
2022-08-30T07:23:08.678Z,2.87
2022-08-30T07:25:37.346Z,2.67
2022-08-30T07:28:05.532Z,3.20
2022-08-30T07:30:32.705Z,3.03
2022-08-30T07:32:59.406Z,2.70
2022-08-30T07:35:26.969Z,2.83
2022-08-30T07:37:53.656Z,2.45
2022-08-30T07:40:20.565Z,2.70
2022-08-30T07:42:47.266Z,2.78
2022-08-30T07:45:13.881Z,3.10
2022-08-30T07:47:40.625Z,2.72
2022-08-30T07:50:08.433Z,2.50
2022-08-30T07:52:35.372Z,2.72
2022-08-30T07:55:02.118Z,2.40
2022-08-30T07:57:33.493Z,2.40
2022-08-30T08:00:01.280Z,2.22
2022-08-30T08:02:28.276Z,2.55
2022-08-30T08:04:55.055Z,2.45
2022-08-30T08:07:21.723Z,2.17
2022-08-30T08:09:48.338Z,2.05
2022-08-30T08:12:15.097Z,1.73
2022-08-30T08:14:41.997Z,1.98
2022-08-30T08:17:09.250Z,1.90
2022-08-30T08:19:35.881Z,2.38
2022-08-30T08:22:20.679Z,2.22
2022-08-30T08:24:49.233Z,2.72
2022-08-30T08:27:16.445Z,2.20
2022-08-30T08:29:43.177Z,2.33
2022-08-30T08:32:09.839Z,2.28
2022-08-30T08:34:37.162Z,2.10
2022-08-30T08:37:03.927Z,2.10
2022-08-30T08:39:30.717Z,2.90
2022-08-30T08:42:14.085Z,2.05
2022-08-30T08:45:07.430Z,2.13
2022-08-30T08:47:55.833Z,2.35
2022-08-30T08:50:24.291Z,2.10
2022-08-30T08:53:36.061Z,1.85
2022-08-30T08:56:14.974Z,2.20
2022-08-30T08:58:56.205Z,2.40
2022-08-30T09:01:26.364Z,2.10
2022-08-30T09:03:53.475Z,2.40
2022-08-30T09:06:28.542Z,2.55
2022-08-30T09:08:55.602Z,2.45
2022-08-30T09:11:27.618Z,2.22
2022-08-30T09:13:54.826Z,2.20
2022-08-30T09:16:52.501Z,2.30
2022-08-30T09:19:34.547Z,2.10
2022-08-30T09:22:14.091Z,3.45
2022-08-30T09:24:46.866Z,2.75
2022-08-30T09:27:24.909Z,2.25
2022-08-30T09:29:59.286Z,2.13
2022-08-30T09:32:30.463Z,2.38
2022-08-30T09:34:57.498Z,2.38
2022-08-30T09:37:29.021Z,2.80
2022-08-30T09:39:55.685Z,2.42
2022-08-30T09:42:26.023Z,2.50
2022-08-30T09:45:10.498Z,2.20
2022-08-30T09:47:40.716Z,2.75
2022-08-30T09:50:24.274Z,2.70
2022-08-30T09:53:11.646Z,2.47
2022-08-30T09:56:10.359Z,2.10
2022-08-30T09:59:08.821Z,2.20
2022-08-30T10:01:59.898Z,2.30
2022-08-30T10:04:52.754Z,2.28
2022-08-30T10:07:40.133Z,2.40
2022-08-30T10:10:16.575Z,2.30
2022-08-30T10:12:57.318Z,2.50
2022-08-30T10:15:48.538Z,2.63
2022-08-30T10:18:30.502Z,2.42
2022-08-30T10:21:19.243Z,2.45
2022-08-30T10:23:51.220Z,2.15
2022-08-30T10:26:28.481Z,2.53
2022-08-30T10:29:03.281Z,2.53
2022-08-30T10:31:51.437Z,2.45
2022-08-30T10:34:26.974Z,2.70
2022-08-30T10:37:13.366Z,2.35
2022-08-30T10:39:49.829Z,2.45
2022-08-30T10:42:25.508Z,2.30
2022-08-30T10:45:05.370Z,2.53
2022-08-30T10:47:49.757Z,2.22
2022-08-30T10:50:22.806Z,2.22
2022-08-30T10:53:15.284Z,2.33
2022-08-30T10:55:58.352Z,2.03
2022-08-30T10:58:25.080Z,2.55
2022-08-30T11:00:57.739Z,2.03
2022-08-30T11:04:02.755Z,2.20
2022-08-30T11:06:59.553Z,1.98
2022-08-30T11:09:41.415Z,2.08
2022-08-30T11:12:27.018Z,1.90
2022-08-30T11:14:54.097Z,1.80
2022-08-30T11:17:26.785Z,1.90
2022-08-30T11:19:57.422Z,2.30
2022-08-30T11:22:24.247Z,1.90
2022-08-30T11:25:11.413Z,2.28
2022-08-30T11:27:47.271Z,2.13
2022-08-30T11:30:27.516Z,2.30
2022-08-30T11:33:27.853Z,2.08
2022-08-30T11:35:55.112Z,2.20
2022-08-30T11:38:28.314Z,2.28
2022-08-30T11:40:54.889Z,2.15
2022-08-30T11:43:39.700Z,2.20
2022-08-30T11:46:27.148Z,2.00
2022-08-30T11:49:14.944Z,2.40
2022-08-30T11:55:16.559Z,1.80
2022-08-30T11:58:11.886Z,2.15
2022-08-30T12:00:41.701Z,2.58
2022-08-30T12:03:32.906Z,1.80
2022-08-30T12:06:08.210Z,2.30
2022-08-30T12:08:34.762Z,2.30
2022-08-30T12:11:11.897Z,1.80
2022-08-30T12:13:44.814Z,2.53
2022-08-30T12:17:03.389Z,2.38
2022-08-30T12:19:31.857Z,2.40
2022-08-30T12:22:05.998Z,2.13
2022-08-30T12:24:38.385Z,2.33
2022-08-30T12:27:24.647Z,2.22
2022-08-30T12:29:54.449Z,2.10
2022-08-30T12:32:22.325Z,1.90
2022-08-30T12:35:07.124Z,2.03
2022-08-30T12:37:42.159Z,2.15
2022-08-30T12:40:18.680Z,2.00
2022-08-30T12:42:53.201Z,2.10
2022-08-30T12:45:25.460Z,1.85
2022-08-30T12:48:08.282Z,1.80
2022-08-30T12:50:54.586Z,1.65
2022-08-30T12:53:32.939Z,1.85
2022-08-30T12:56:12.287Z,2.40
2022-08-30T12:58:46.611Z,1.85
2022-08-30T13:01:31.284Z,2.15
2022-08-30T13:04:21.776Z,2.15
2022-08-30T13:06:55.633Z,1.75
2022-08-30T13:09:37.514Z,1.80
2022-08-30T13:12:08.532Z,2.05
2022-08-30T13:14:43.673Z,2.00
2022-08-30T13:17:12.304Z,1.60
2022-08-30T13:19:43.528Z,1.73
2022-08-30T13:22:30.781Z,1.90
2022-08-30T13:24:58.129Z,1.80
2022-08-30T13:27:26.058Z,1.88
2022-08-30T13:29:53.027Z,2.22
2022-08-30T13:32:20.580Z,2.22
2022-08-30T13:34:47.271Z,1.90
2022-08-30T13:40:12.118Z,1.92
2022-08-30T13:42:41.903Z,1.50
2022-08-30T13:47:59.675Z,1.58
2022-08-30T13:50:26.429Z,2.03
2022-08-30T13:52:53.034Z,1.75
2022-08-30T13:55:19.604Z,2.13
2022-08-30T13:57:55.361Z,1.95
2022-08-30T14:00:23.581Z,1.70
2022-08-30T14:02:54.467Z,2.30
2022-08-30T14:05:47.778Z,1.90
2022-08-30T14:11:00.342Z,1.63
2022-08-30T14:13:29.333Z,1.75
2022-08-30T14:18:46.760Z,1.77
2022-08-30T14:21:13.509Z,1.80
2022-08-30T14:23:40.241Z,1.63
2022-08-30T14:26:17.240Z,1.88
2022-08-30T14:28:44.793Z,1.77
2022-08-30T14:31:12.665Z,1.73
2022-08-30T14:33:40.057Z,2.10
2022-08-30T14:36:12.406Z,1.80
2022-08-30T14:38:42.628Z,2.20
2022-08-30T14:41:10.684Z,2.10
2022-08-30T14:43:39.566Z,2.00
2022-08-30T14:46:06.287Z,1.77
2022-08-30T14:48:33.174Z,2.20
2022-08-30T14:51:01.473Z,1.80
2022-08-30T14:53:28.102Z,2.03
2022-08-30T14:55:54.714Z,1.48
2022-08-30T14:58:21.322Z,2.10
2022-08-30T15:00:52.925Z,2.00
2022-08-30T15:03:19.858Z,1.92
2022-08-30T15:05:53.115Z,1.88
2022-08-30T15:08:19.994Z,1.70
2022-08-30T15:10:47.365Z,1.88
2022-08-30T15:13:14.568Z,1.98
2022-08-30T15:15:42.773Z,1.80
2022-08-30T15:18:09.837Z,2.10
2022-08-30T15:20:37.475Z,1.90
2022-08-30T15:23:04.977Z,1.60
2022-08-30T15:25:31.786Z,2.20
2022-08-30T15:27:58.409Z,1.95
2022-08-30T15:30:25.162Z,1.83
2022-08-30T15:32:51.952Z,1.83
2022-08-30T15:35:18.645Z,1.75
2022-08-30T15:37:45.247Z,1.92
2022-08-30T15:40:12.096Z,1.77
2022-08-30T15:42:39.917Z,1.88
2022-08-30T15:45:09.598Z,1.90
2022-08-30T15:47:36.278Z,1.98
2022-08-30T15:50:06.181Z,2.22
2022-08-30T15:52:33.733Z,2.05
2022-08-30T15:55:00.344Z,1.90
2022-08-30T15:57:26.990Z,1.80
2022-08-30T15:59:54.548Z,2.45
2022-08-30T16:02:21.945Z,2.05
2022-08-30T16:04:54.394Z,2.10
2022-08-30T16:07:21.183Z,2.03
2022-08-30T16:09:47.846Z,1.85
2022-08-30T16:12:22.467Z,2.30
2022-08-30T16:14:50.825Z,1.98
2022-08-30T16:17:18.242Z,1.95
2022-08-30T16:19:45.050Z,2.17
2022-08-30T16:22:11.646Z,3.08
2022-08-30T16:24:38.602Z,1.90
2022-08-30T16:27:05.829Z,2.15
2022-08-30T16:29:35.748Z,1.92
2022-08-30T16:32:02.575Z,2.08
2022-08-30T16:34:29.303Z,2.22
2022-08-30T16:36:55.961Z,2.33
2022-08-30T16:39:22.757Z,2.55
2022-08-30T16:41:49.393Z,1.73
2022-08-30T16:44:18.553Z,2.83
2022-08-30T16:46:53.223Z,3.10
2022-08-30T16:49:22.633Z,2.58
2022-08-30T16:51:50.540Z,2.40
2022-08-30T16:54:17.485Z,2.55
2022-08-30T16:56:45.075Z,2.20
2022-08-30T16:59:13.590Z,1.80
2022-08-30T17:01:42.326Z,2.85
2022-08-30T17:04:09.968Z,1.90
2022-08-30T17:06:37.132Z,1.92
2022-08-30T17:09:07.953Z,2.05
2022-08-30T17:11:36.317Z,1.80
2022-08-30T17:14:03.753Z,1.85
2022-08-30T17:16:30.707Z,2.10
2022-08-30T17:19:00.378Z,2.30
2022-08-30T17:21:31.981Z,2.10
2022-08-30T17:24:02.343Z,1.75
2022-08-30T17:26:46.123Z,1.88
2022-08-30T17:29:12.911Z,2.17
2022-08-30T17:31:42.821Z,1.80
2022-08-30T17:34:09.584Z,2.38
2022-08-30T17:36:38.310Z,1.83
2022-08-30T17:39:11.243Z,2.22
2022-08-30T17:44:31.813Z,2.00
2022-08-30T17:46:59.699Z,1.65
2022-08-30T17:49:27.265Z,1.83
2022-08-30T17:51:56.925Z,2.05
2022-08-30T17:54:25.761Z,1.90
2022-08-30T17:56:52.908Z,1.55
2022-08-30T17:59:19.894Z,1.67
2022-08-30T18:01:52.687Z,1.80
2022-08-30T18:04:20.454Z,1.90
2022-08-30T18:06:47.605Z,1.83
2022-08-30T18:09:14.308Z,1.60
2022-08-30T18:11:41.126Z,1.88
2022-08-30T18:14:10.834Z,1.63
2022-08-30T18:16:50.221Z,1.63
2022-08-30T18:19:21.046Z,1.87
2022-08-30T18:21:47.830Z,1.23
2022-08-30T18:24:16.234Z,1.70
2022-08-30T18:26:43.341Z,1.87
2022-08-30T18:29:10.951Z,1.83
2022-08-30T18:31:37.658Z,1.80
2022-08-30T18:34:04.357Z,1.80
2022-08-30T18:36:31.047Z,1.80
2022-08-30T18:38:58.246Z,5.00
2022-08-30T18:41:25.860Z,2.70
2022-08-30T18:44:10.989Z,2.47
2022-08-30T18:46:39.539Z,1.87
2022-08-30T18:49:23.630Z,1.37
2022-08-30T18:51:50.330Z,1.73
2022-08-30T18:54:17.416Z,1.40
2022-08-30T18:56:45.616Z,1.93
2022-08-30T18:59:12.914Z,1.80
2022-08-30T19:01:39.920Z,1.70
2022-08-30T19:04:07.824Z,1.43
2022-08-30T19:06:34.703Z,1.70
2022-08-30T19:09:09.114Z,1.40
2022-08-30T19:11:36.222Z,1.77
2022-08-30T19:14:05.385Z,1.30
2022-08-30T19:16:34.350Z,1.87
2022-08-30T19:19:01.068Z,1.70
2022-08-30T19:21:27.776Z,1.53
2022-08-30T19:23:55.281Z,1.60
2022-08-30T19:26:22.243Z,1.73
2022-08-30T19:28:48.933Z,1.47
2022-08-30T19:31:15.540Z,1.53
2022-08-30T19:33:42.397Z,1.37
2022-08-30T19:36:09.054Z,1.60
2022-08-30T19:38:36.754Z,1.30
2022-08-30T19:41:04.206Z,1.70
2022-08-30T19:43:30.961Z,1.70
2022-08-30T19:45:59.670Z,1.60
2022-08-30T19:48:32.212Z,1.10
2022-08-30T19:51:06.756Z,1.40
2022-08-30T19:53:34.443Z,1.57
2022-08-30T19:56:01.050Z,1.80
2022-08-30T19:58:30.121Z,1.63
2022-08-30T20:00:57.956Z,1.60
2022-08-30T20:03:37.404Z,1.80
2022-08-30T20:06:07.150Z,1.90
2022-08-30T20:08:34.129Z,1.53
2022-08-30T20:11:01.087Z,1.37
2022-08-30T20:13:28.495Z,3.00
2022-08-30T20:15:56.922Z,1.60
2022-08-30T20:18:28.785Z,1.30
2022-08-30T20:20:56.289Z,1.73
2022-08-30T20:23:24.321Z,1.40
2022-08-30T20:24:24.179Z,2.17
2022-08-30T20:25:54.395Z,1.53
2022-08-30T20:28:21.392Z,1.40
2022-08-30T20:30:48.991Z,1.13
2022-08-30T20:33:16.198Z,1.10
2022-08-30T20:35:49.305Z,1.27
2022-08-30T20:38:21.550Z,1.43
2022-08-30T20:40:50.733Z,1.30
2022-08-30T20:43:22.637Z,1.30
2022-08-30T20:45:49.484Z,1.67
2022-08-30T20:48:17.456Z,1.50
2022-08-30T20:50:44.366Z,1.10
2022-08-30T20:53:11.878Z,1.40
2022-08-30T20:55:43.814Z,1.40
2022-08-30T20:58:10.865Z,1.40
2022-08-30T21:00:37.715Z,1.60
2022-08-30T21:03:11.470Z,1.50
2022-08-30T21:05:53.781Z,1.13
2022-08-30T21:08:20.428Z,1.23
2022-08-30T21:10:47.785Z,1.20
2022-08-30T21:13:14.494Z,1.10
2022-08-30T21:15:45.637Z,1.20
2022-08-30T21:18:13.574Z,1.37
2022-08-30T21:20:40.450Z,1.30
2022-08-30T21:23:07.195Z,1.43
2022-08-30T21:25:34.093Z,1.20
2022-08-30T21:28:01.174Z,1.17
2022-08-30T21:30:27.847Z,1.20
2022-08-30T21:32:55.030Z,1.37
2022-08-30T21:35:45.014Z,1.37
2022-08-30T21:38:11.630Z,1.40
2022-08-30T21:40:38.312Z,1.17
2022-08-30T21:43:06.178Z,1.37
2022-08-30T21:45:39.695Z,1.30
2022-08-30T21:48:07.038Z,1.27
2022-08-30T21:50:34.290Z,1.30
2022-08-30T21:53:01.529Z,1.60
2022-08-30T21:55:28.125Z,1.40
2022-08-30T21:57:55.053Z,1.13
2022-08-30T22:00:22.091Z,1.70
2022-08-30T22:02:49.263Z,1.40
2022-08-30T22:05:19.810Z,1.60
2022-08-30T22:07:46.565Z,1.90
2022-08-30T22:10:13.734Z,1.73
2022-08-30T22:12:41.443Z,1.93
2022-08-30T22:15:09.461Z,2.07
2022-08-30T22:17:36.155Z,2.00
2022-08-30T22:20:04.733Z,2.13
2022-08-30T22:22:31.450Z,2.17
2022-08-30T22:24:58.103Z,2.57
2022-08-30T22:27:24.730Z,2.90
2022-08-30T22:29:51.333Z,3.23
2022-08-30T22:32:18.000Z,3.03
2022-08-30T22:34:45.813Z,3.27
2022-08-30T22:37:12.710Z,2.90
2022-08-30T22:39:39.353Z,2.97
2022-08-30T22:42:06.495Z,3.07
2022-08-30T22:44:33.134Z,3.10
2022-08-30T22:47:01.106Z,3.30
2022-08-30T22:49:28.085Z,3.13
2022-08-30T22:51:54.719Z,3.63
2022-08-30T22:54:21.401Z,3.87
2022-08-30T22:56:48.563Z,3.97
2022-08-30T22:59:15.541Z,3.70
2022-08-30T23:01:43.234Z,3.83
2022-08-30T23:04:11.241Z,3.77
2022-08-30T23:06:38.080Z,3.50
2022-08-30T23:09:06.573Z,4.00
2022-08-30T23:11:34.006Z,4.13
2022-08-30T23:14:01.910Z,4.43
2022-08-30T23:16:28.707Z,4.43
2022-08-30T23:18:55.525Z,4.77
2022-08-30T23:21:26.833Z,5.17
2022-08-30T23:24:14.027Z,5.20
2022-08-30T23:27:00.129Z,4.40
2022-08-30T23:29:45.878Z,4.10
2022-08-30T23:32:32.025Z,3.70
2022-08-30T23:35:17.896Z,5.23
2022-08-30T23:38:05.136Z,4.40
2022-08-30T23:40:50.595Z,4.33
2022-08-30T23:43:35.940Z,4.40
2022-08-30T23:46:21.453Z,5.20
2022-08-30T23:49:08.394Z,4.80
2022-08-30T23:51:56.661Z,4.70
2022-08-30T23:54:42.948Z,5.27
2022-08-30T23:57:28.590Z,4.77
